sensor_id;sensor_type;location;lat;lon;timestamp;pressure;altitude;pressure_sealevel;temperature;humidity
67740;BME280;54536;50.090;14.420;2023-04-09T00:00:37;100280.03;;;8.58;56.68
67740;BME280;54536;50.090;14.420;2023-04-09T00:03:24;100278.38;;;8.57;55.67
67740;BME280;54536;50.090;14.420;2023-04-09T00:05:50;100274.69;;;8.59;56.26
67740;BME280;54536;50.090;14.420;2023-04-09T00:08:17;100282.06;;;8.40;56.01
67740;BME280;54536;50.090;14.420;2023-04-09T00:10:43;100280.00;;;8.45;55.72
67740;BME280;54536;50.090;14.420;2023-04-09T00:13:09;100286.13;;;8.31;56.25
67740;BME280;54536;50.090;14.420;2023-04-09T00:15:36;100287.88;;;8.45;56.10
67740;BME280;54536;50.090;14.420;2023-04-09T00:18:02;100281.78;;;8.44;56.09
67740;BME280;54536;50.090;14.420;2023-04-09T00:20:28;100274.38;;;8.51;55.51
67740;BME280;54536;50.090;14.420;2023-04-09T00:22:54;100272.38;;;8.55;55.87
67740;BME280;54536;50.090;14.420;2023-04-09T00:25:21;100264.84;;;8.50;56.05
67740;BME280;54536;50.090;14.420;2023-04-09T00:27:47;100271.84;;;8.50;56.19
67740;BME280;54536;50.090;14.420;2023-04-09T00:30:13;100282.03;;;8.54;55.78
67740;BME280;54536;50.090;14.420;2023-04-09T00:32:39;100279.50;;;8.53;56.19
67740;BME280;54536;50.090;14.420;2023-04-09T00:35:05;100284.72;;;8.53;56.10
67740;BME280;54536;50.090;14.420;2023-04-09T00:37:32;100282.31;;;8.50;56.02
67740;BME280;54536;50.090;14.420;2023-04-09T00:39:58;100284.69;;;8.40;55.90
67740;BME280;54536;50.090;14.420;2023-04-09T00:42:24;100286.97;;;8.32;55.61
67740;BME280;54536;50.090;14.420;2023-04-09T00:44:51;100284.09;;;8.22;56.22
67740;BME280;54536;50.090;14.420;2023-04-09T00:47:17;100277.78;;;8.39;55.62
67740;BME280;54536;50.090;14.420;2023-04-09T00:49:43;100268.81;;;8.29;55.80
67740;BME280;54536;50.090;14.420;2023-04-09T00:52:10;100274.13;;;8.41;56.38
67740;BME280;54536;50.090;14.420;2023-04-09T00:54:36;100275.59;;;8.46;56.20
67740;BME280;54536;50.090;14.420;2023-04-09T00:57:02;100273.19;;;8.42;56.34
67740;BME280;54536;50.090;14.420;2023-04-09T00:59:29;100271.13;;;8.48;56.36
67740;BME280;54536;50.090;14.420;2023-04-09T01:01:55;100279.00;;;8.33;55.74
67740;BME280;54536;50.090;14.420;2023-04-09T01:04:22;100277.44;;;8.31;55.92
67740;BME280;54536;50.090;14.420;2023-04-09T01:06:59;100281.81;;;8.30;56.18
67740;BME280;54536;50.090;14.420;2023-04-09T01:09:42;100269.78;;;8.28;56.26
67740;BME280;54536;50.090;14.420;2023-04-09T01:17:45;100262.94;;;8.52;55.89
67740;BME280;54536;50.090;14.420;2023-04-09T01:20:34;100274.03;;;8.56;56.19
67740;BME280;54536;50.090;14.420;2023-04-09T01:23:13;100271.44;;;8.56;55.56
67740;BME280;54536;50.090;14.420;2023-04-09T01:26:06;100270.06;;;8.50;56.24
67740;BME280;54536;50.090;14.420;2023-04-09T01:28:44;100275.31;;;8.63;55.63
67740;BME280;54536;50.090;14.420;2023-04-09T01:31:14;100274.91;;;8.69;55.82
67740;BME280;54536;50.090;14.420;2023-04-09T01:33:43;100268.53;;;8.60;56.47
67740;BME280;54536;50.090;14.420;2023-04-09T01:36:10;100262.56;;;8.71;55.86
67740;BME280;54536;50.090;14.420;2023-04-09T01:38:41;100269.63;;;8.56;56.14
67740;BME280;54536;50.090;14.420;2023-04-09T01:41:16;100268.81;;;8.56;56.21
67740;BME280;54536;50.090;14.420;2023-04-09T01:43:44;100267.78;;;8.58;55.75
67740;BME280;54536;50.090;14.420;2023-04-09T01:46:12;100270.81;;;8.65;56.30
67740;BME280;54536;50.090;14.420;2023-04-09T01:48:39;100270.19;;;8.61;56.13
67740;BME280;54536;50.090;14.420;2023-04-09T01:51:06;100260.13;;;8.68;55.83
67740;BME280;54536;50.090;14.420;2023-04-09T01:53:32;100258.53;;;8.65;56.41
67740;BME280;54536;50.090;14.420;2023-04-09T01:55:58;100264.00;;;8.75;55.86
67740;BME280;54536;50.090;14.420;2023-04-09T01:58:26;100264.66;;;8.79;55.55
67740;BME280;54536;50.090;14.420;2023-04-09T02:01:19;100265.69;;;8.76;55.81
67740;BME280;54536;50.090;14.420;2023-04-09T02:03:53;100261.09;;;8.67;56.31
67740;BME280;54536;50.090;14.420;2023-04-09T02:08:59;100260.75;;;8.72;55.95
67740;BME280;54536;50.090;14.420;2023-04-09T02:11:28;100264.97;;;8.74;55.47
67740;BME280;54536;50.090;14.420;2023-04-09T02:13:57;100269.47;;;8.72;55.96
67740;BME280;54536;50.090;14.420;2023-04-09T02:16:24;100264.88;;;8.88;55.24
67740;BME280;54536;50.090;14.420;2023-04-09T02:18:53;100268.84;;;8.68;56.20
67740;BME280;54536;50.090;14.420;2023-04-09T02:21:22;100269.25;;;8.75;55.60
67740;BME280;54536;50.090;14.420;2023-04-09T02:23:49;100266.44;;;8.78;55.47
67740;BME280;54536;50.090;14.420;2023-04-09T02:26:15;100264.97;;;8.87;55.31
67740;BME280;54536;50.090;14.420;2023-04-09T02:28:41;100259.19;;;8.82;55.79
67740;BME280;54536;50.090;14.420;2023-04-09T02:31:07;100265.28;;;8.82;55.87
67740;BME280;54536;50.090;14.420;2023-04-09T02:33:33;100259.50;;;8.64;56.56
67740;BME280;54536;50.090;14.420;2023-04-09T02:35:59;100261.69;;;8.58;56.40
67740;BME280;54536;50.090;14.420;2023-04-09T02:38:26;100259.38;;;8.66;56.13
67740;BME280;54536;50.090;14.420;2023-04-09T02:40:52;100253.88;;;8.83;56.11
67740;BME280;54536;50.090;14.420;2023-04-09T02:43:18;100259.19;;;8.82;55.98
67740;BME280;54536;50.090;14.420;2023-04-09T02:45:44;100267.19;;;8.93;56.69
67740;BME280;54536;50.090;14.420;2023-04-09T02:48:10;100266.78;;;8.86;56.30
67740;BME280;54536;50.090;14.420;2023-04-09T02:50:36;100268.66;;;8.84;56.49
67740;BME280;54536;50.090;14.420;2023-04-09T02:53:02;100267.19;;;8.93;56.53
67740;BME280;54536;50.090;14.420;2023-04-09T02:55:28;100267.00;;;8.96;56.59
67740;BME280;54536;50.090;14.420;2023-04-09T02:57:55;100261.19;;;8.78;56.64
67740;BME280;54536;50.090;14.420;2023-04-09T03:00:21;100262.03;;;8.79;57.10
67740;BME280;54536;50.090;14.420;2023-04-09T03:02:47;100260.69;;;8.73;57.39
67740;BME280;54536;50.090;14.420;2023-04-09T03:05:13;100258.06;;;8.73;57.02
67740;BME280;54536;50.090;14.420;2023-04-09T03:07:39;100260.56;;;8.75;57.38
67740;BME280;54536;50.090;14.420;2023-04-09T03:10:05;100250.47;;;8.68;57.14
67740;BME280;54536;50.090;14.420;2023-04-09T03:12:32;100256.56;;;8.69;57.65
67740;BME280;54536;50.090;14.420;2023-04-09T03:14:58;100247.84;;;8.68;57.25
67740;BME280;54536;50.090;14.420;2023-04-09T03:17:24;100253.53;;;8.75;56.88
67740;BME280;54536;50.090;14.420;2023-04-09T03:19:52;100247.25;;;8.78;57.64
67740;BME280;54536;50.090;14.420;2023-04-09T03:22:18;100255.13;;;8.78;57.70
67740;BME280;54536;50.090;14.420;2023-04-09T03:24:44;100252.91;;;8.84;56.79
67740;BME280;54536;50.090;14.420;2023-04-09T03:27:10;100251.75;;;8.88;56.98
67740;BME280;54536;50.090;14.420;2023-04-09T03:29:36;100249.97;;;8.89;56.97
67740;BME280;54536;50.090;14.420;2023-04-09T03:32:02;100256.91;;;8.90;56.88
67740;BME280;54536;50.090;14.420;2023-04-09T03:34:28;100246.94;;;8.95;56.90
67740;BME280;54536;50.090;14.420;2023-04-09T03:36:55;100245.59;;;8.89;56.21
67740;BME280;54536;50.090;14.420;2023-04-09T03:39:21;100249.13;;;8.88;57.28
67740;BME280;54536;50.090;14.420;2023-04-09T03:41:47;100248.28;;;8.75;57.73
67740;BME280;54536;50.090;14.420;2023-04-09T03:44:13;100252.69;;;8.75;57.27
67740;BME280;54536;50.090;14.420;2023-04-09T03:46:40;100254.38;;;8.76;57.20
67740;BME280;54536;50.090;14.420;2023-04-09T03:49:06;100248.81;;;8.80;57.19
67740;BME280;54536;50.090;14.420;2023-04-09T03:51:32;100249.03;;;8.90;57.05
67740;BME280;54536;50.090;14.420;2023-04-09T03:53:58;100241.25;;;8.88;57.21
67740;BME280;54536;50.090;14.420;2023-04-09T03:56:24;100246.72;;;8.85;57.25
67740;BME280;54536;50.090;14.420;2023-04-09T03:58:50;100237.94;;;8.86;57.30
67740;BME280;54536;50.090;14.420;2023-04-09T04:01:17;100242.63;;;8.94;57.01
67740;BME280;54536;50.090;14.420;2023-04-09T04:03:43;100244.84;;;8.87;57.48
67740;BME280;54536;50.090;14.420;2023-04-09T04:06:09;100237.47;;;8.93;57.51
67740;BME280;54536;50.090;14.420;2023-04-09T04:08:35;100237.72;;;8.89;56.59
67740;BME280;54536;50.090;14.420;2023-04-09T04:11:03;100239.59;;;8.87;57.38
67740;BME280;54536;50.090;14.420;2023-04-09T04:13:29;100243.88;;;8.88;57.42
67740;BME280;54536;50.090;14.420;2023-04-09T04:15:56;100247.53;;;8.86;57.29
67740;BME280;54536;50.090;14.420;2023-04-09T04:18:21;100253.03;;;8.83;57.69
67740;BME280;54536;50.090;14.420;2023-04-09T04:20:48;100256.06;;;8.89;57.13
67740;BME280;54536;50.090;14.420;2023-04-09T04:23:14;100264.97;;;8.87;57.32
67740;BME280;54536;50.090;14.420;2023-04-09T04:25:40;100260.44;;;8.89;57.06
67740;BME280;54536;50.090;14.420;2023-04-09T04:28:07;100273.78;;;8.99;57.38
67740;BME280;54536;50.090;14.420;2023-04-09T04:30:34;100279.91;;;8.99;57.48
67740;BME280;54536;50.090;14.420;2023-04-09T04:33:00;100280.94;;;8.97;57.86
67740;BME280;54536;50.090;14.420;2023-04-09T04:35:26;100287.66;;;9.01;58.00
67740;BME280;54536;50.090;14.420;2023-04-09T04:37:52;100284.38;;;8.84;58.50
67740;BME280;54536;50.090;14.420;2023-04-09T04:40:18;100283.75;;;8.81;59.32
67740;BME280;54536;50.090;14.420;2023-04-09T04:42:44;100287.31;;;8.80;59.29
67740;BME280;54536;50.090;14.420;2023-04-09T04:45:10;100285.19;;;8.72;59.35
67740;BME280;54536;50.090;14.420;2023-04-09T04:47:36;100286.56;;;8.78;59.45
67740;BME280;54536;50.090;14.420;2023-04-09T04:50:03;100285.13;;;8.86;59.24
67740;BME280;54536;50.090;14.420;2023-04-09T04:52:29;100282.09;;;8.80;59.51
67740;BME280;54536;50.090;14.420;2023-04-09T04:54:55;100287.56;;;8.89;59.87
67740;BME280;54536;50.090;14.420;2023-04-09T04:57:21;100283.94;;;8.78;59.61
67740;BME280;54536;50.090;14.420;2023-04-09T04:59:47;100280.09;;;8.83;59.27
67740;BME280;54536;50.090;14.420;2023-04-09T05:02:13;100281.22;;;8.92;59.88
67740;BME280;54536;50.090;14.420;2023-04-09T05:04:39;100282.06;;;8.93;58.96
67740;BME280;54536;50.090;14.420;2023-04-09T05:07:05;100274.31;;;8.78;58.44
67740;BME280;54536;50.090;14.420;2023-04-09T05:09:32;100278.94;;;8.87;58.40
67740;BME280;54536;50.090;14.420;2023-04-09T05:11:58;100271.50;;;8.94;58.79
67740;BME280;54536;50.090;14.420;2023-04-09T05:14:24;100275.06;;;8.93;58.82
67740;BME280;54536;50.090;14.420;2023-04-09T05:16:50;100273.69;;;9.00;57.78
67740;BME280;54536;50.090;14.420;2023-04-09T05:19:17;100284.81;;;9.04;57.68
67740;BME280;54536;50.090;14.420;2023-04-09T05:21:43;100278.09;;;9.00;57.95
67740;BME280;54536;50.090;14.420;2023-04-09T05:24:09;100270.66;;;8.94;58.59
67740;BME280;54536;50.090;14.420;2023-04-09T05:26:35;100274.09;;;8.94;58.43
67740;BME280;54536;50.090;14.420;2023-04-09T05:29:02;100281.97;;;8.94;58.06
67740;BME280;54536;50.090;14.420;2023-04-09T05:31:28;100281.16;;;9.06;57.61
67740;BME280;54536;50.090;14.420;2023-04-09T05:33:54;100288.59;;;9.00;58.19
67740;BME280;54536;50.090;14.420;2023-04-09T05:36:20;100293.00;;;9.12;57.56
67740;BME280;54536;50.090;14.420;2023-04-09T05:38:46;100287.13;;;9.08;57.50
67740;BME280;54536;50.090;14.420;2023-04-09T05:41:13;100294.06;;;8.97;57.32
67740;BME280;54536;50.090;14.420;2023-04-09T05:43:39;100296.78;;;9.08;57.77
67740;BME280;54536;50.090;14.420;2023-04-09T05:46:05;100295.41;;;9.02;57.33
67740;BME280;54536;50.090;14.420;2023-04-09T05:48:34;100290.47;;;8.98;57.58
67740;BME280;54536;50.090;14.420;2023-04-09T05:51:01;100305.28;;;9.11;57.86
67740;BME280;54536;50.090;14.420;2023-04-09T05:53:27;100297.31;;;9.00;57.64
67740;BME280;54536;50.090;14.420;2023-04-09T05:55:54;100306.84;;;9.01;57.83
67740;BME280;54536;50.090;14.420;2023-04-09T05:58:20;100305.19;;;9.00;57.52
67740;BME280;54536;50.090;14.420;2023-04-09T06:00:46;100308.94;;;9.09;57.26
67740;BME280;54536;50.090;14.420;2023-04-09T06:03:13;100305.69;;;9.05;57.64
67740;BME280;54536;50.090;14.420;2023-04-09T06:05:39;100304.56;;;9.09;57.27
67740;BME280;54536;50.090;14.420;2023-04-09T06:08:05;100302.84;;;9.08;58.00
67740;BME280;54536;50.090;14.420;2023-04-09T06:10:31;100309.41;;;9.16;57.27
67740;BME280;54536;50.090;14.420;2023-04-09T06:12:58;100311.78;;;9.19;56.91
67740;BME280;54536;50.090;14.420;2023-04-09T06:15:23;100313.47;;;9.20;57.22
67740;BME280;54536;50.090;14.420;2023-04-09T06:17:50;100313.03;;;9.00;56.86
67740;BME280;54536;50.090;14.420;2023-04-09T06:20:16;100314.19;;;9.22;57.17
67740;BME280;54536;50.090;14.420;2023-04-09T06:22:42;100312.66;;;9.19;56.91
67740;BME280;54536;50.090;14.420;2023-04-09T06:25:08;100310.44;;;9.13;56.82
67740;BME280;54536;50.090;14.420;2023-04-09T06:27:34;100319.66;;;9.19;57.28
67740;BME280;54536;50.090;14.420;2023-04-09T06:30:00;100330.34;;;9.28;57.27
67740;BME280;54536;50.090;14.420;2023-04-09T06:32:27;100323.22;;;9.30;56.26
67740;BME280;54536;50.090;14.420;2023-04-09T06:34:52;100322.06;;;9.34;56.14
67740;BME280;54536;50.090;14.420;2023-04-09T06:37:19;100321.03;;;9.37;56.93
67740;BME280;54536;50.090;14.420;2023-04-09T06:39:45;100317.03;;;9.31;56.14
67740;BME280;54536;50.090;14.420;2023-04-09T06:42:11;100318.81;;;9.18;56.62
67740;BME280;54536;50.090;14.420;2023-04-09T06:44:36;100322.50;;;9.41;56.89
67740;BME280;54536;50.090;14.420;2023-04-09T06:47:03;100325.75;;;9.45;56.22
67740;BME280;54536;50.090;14.420;2023-04-09T06:49:29;100337.09;;;9.45;56.32
67740;BME280;54536;50.090;14.420;2023-04-09T06:51:55;100340.66;;;9.31;56.05
67740;BME280;54536;50.090;14.420;2023-04-09T06:54:21;100337.50;;;9.52;56.08
67740;BME280;54536;50.090;14.420;2023-04-09T06:56:47;100338.44;;;9.51;55.95
67740;BME280;54536;50.090;14.420;2023-04-09T06:59:13;100335.41;;;9.44;56.14
67740;BME280;54536;50.090;14.420;2023-04-09T07:01:41;100338.34;;;9.52;56.36
67740;BME280;54536;50.090;14.420;2023-04-09T07:04:07;100341.59;;;9.56;56.12
67740;BME280;54536;50.090;14.420;2023-04-09T07:06:33;100341.81;;;9.66;56.35
67740;BME280;54536;50.090;14.420;2023-04-09T07:08:59;100349.44;;;9.81;55.37
67740;BME280;54536;50.090;14.420;2023-04-09T07:11:26;100348.19;;;9.74;56.18
67740;BME280;54536;50.090;14.420;2023-04-09T07:13:52;100342.50;;;9.80;56.04
67740;BME280;54536;50.090;14.420;2023-04-09T07:16:18;100344.59;;;9.88;56.10
67740;BME280;54536;50.090;14.420;2023-04-09T07:18:44;100350.91;;;9.85;55.81
67740;BME280;54536;50.090;14.420;2023-04-09T07:21:10;100355.22;;;9.87;55.98
67740;BME280;54536;50.090;14.420;2023-04-09T07:23:36;100356.78;;;9.89;55.73
67740;BME280;54536;50.090;14.420;2023-04-09T07:26:04;100349.66;;;9.91;56.41
67740;BME280;54536;50.090;14.420;2023-04-09T07:28:31;100350.25;;;9.95;56.33
67740;BME280;54536;50.090;14.420;2023-04-09T07:30:59;100341.75;;;10.04;55.20
67740;BME280;54536;50.090;14.420;2023-04-09T07:33:28;100344.75;;;10.11;55.61
67740;BME280;54536;50.090;14.420;2023-04-09T07:35:54;100346.34;;;10.00;55.70
67740;BME280;54536;50.090;14.420;2023-04-09T07:38:20;100344.13;;;10.07;55.04
67740;BME280;54536;50.090;14.420;2023-04-09T07:40:47;100332.47;;;10.11;55.41
67740;BME280;54536;50.090;14.420;2023-04-09T07:43:13;100331.06;;;10.18;55.31
67740;BME280;54536;50.090;14.420;2023-04-09T07:45:39;100336.97;;;10.09;55.24
67740;BME280;54536;50.090;14.420;2023-04-09T07:48:05;100342.13;;;10.11;55.01
67740;BME280;54536;50.090;14.420;2023-04-09T07:50:33;100340.13;;;10.14;55.00
67740;BME280;54536;50.090;14.420;2023-04-09T07:52:59;100341.81;;;10.02;55.82
67740;BME280;54536;50.090;14.420;2023-04-09T07:55:25;100344.38;;;10.04;55.66
67740;BME280;54536;50.090;14.420;2023-04-09T07:57:52;100348.31;;;10.09;55.62
67740;BME280;54536;50.090;14.420;2023-04-09T08:00:19;100355.72;;;10.04;55.91
67740;BME280;54536;50.090;14.420;2023-04-09T08:02:45;100361.38;;;10.11;56.12
67740;BME280;54536;50.090;14.420;2023-04-09T08:05:11;100363.34;;;10.20;55.98
67740;BME280;54536;50.090;14.420;2023-04-09T08:07:37;100362.47;;;10.20;55.25
67740;BME280;54536;50.090;14.420;2023-04-09T08:10:04;100360.66;;;10.33;55.19
67740;BME280;54536;50.090;14.420;2023-04-09T08:12:31;100359.19;;;10.42;55.25
67740;BME280;54536;50.090;14.420;2023-04-09T08:14:57;100352.66;;;10.47;55.20
67740;BME280;54536;50.090;14.420;2023-04-09T08:17:23;100364.03;;;10.35;55.16
67740;BME280;54536;50.090;14.420;2023-04-09T08:19:49;100366.75;;;10.46;55.06
67740;BME280;54536;50.090;14.420;2023-04-09T08:22:15;100362.59;;;10.55;53.88
67740;BME280;54536;50.090;14.420;2023-04-09T08:24:41;100361.97;;;10.75;53.95
67740;BME280;54536;50.090;14.420;2023-04-09T08:27:08;100355.09;;;10.97;53.40
67740;BME280;54536;50.090;14.420;2023-04-09T08:29:34;100359.56;;;11.08;53.81
67740;BME280;54536;50.090;14.420;2023-04-09T08:32:00;100352.19;;;11.24;52.98
67740;BME280;54536;50.090;14.420;2023-04-09T08:34:27;100355.31;;;11.29;51.97
67740;BME280;54536;50.090;14.420;2023-04-09T08:36:53;100352.22;;;11.35;52.39
67740;BME280;54536;50.090;14.420;2023-04-09T08:39:19;100352.31;;;11.34;52.13
67740;BME280;54536;50.090;14.420;2023-04-09T08:41:45;100356.78;;;11.44;52.00
67740;BME280;54536;50.090;14.420;2023-04-09T08:44:13;100355.81;;;11.68;51.60
67740;BME280;54536;50.090;14.420;2023-04-09T08:46:39;100363.97;;;11.76;51.03
67740;BME280;54536;50.090;14.420;2023-04-09T08:49:08;100361.91;;;11.80;51.12
67740;BME280;54536;50.090;14.420;2023-04-09T08:51:35;100358.34;;;11.92;50.52
67740;BME280;54536;50.090;14.420;2023-04-09T08:54:02;100361.69;;;12.05;50.63
67740;BME280;54536;50.090;14.420;2023-04-09T08:56:28;100360.25;;;12.12;49.68
67740;BME280;54536;50.090;14.420;2023-04-09T08:58:54;100358.69;;;12.21;50.46
67740;BME280;54536;50.090;14.420;2023-04-09T09:01:23;100350.38;;;12.37;49.57
67740;BME280;54536;50.090;14.420;2023-04-09T09:06:24;100353.53;;;12.63;49.05
67740;BME280;54536;50.090;14.420;2023-04-09T09:09:21;100346.44;;;12.63;48.84
67740;BME280;54536;50.090;14.420;2023-04-09T09:11:48;100357.81;;;12.75;48.83
67740;BME280;54536;50.090;14.420;2023-04-09T09:14:19;100355.59;;;12.80;48.49
67740;BME280;54536;50.090;14.420;2023-04-09T09:21:57;100349.19;;;12.94;48.36
67740;BME280;54536;50.090;14.420;2023-04-09T09:24:23;100342.38;;;13.12;47.97
67740;BME280;54536;50.090;14.420;2023-04-09T09:26:50;100350.78;;;13.06;46.86
67740;BME280;54536;50.090;14.420;2023-04-09T09:29:16;100356.34;;;13.03;47.70
67740;BME280;54536;50.090;14.420;2023-04-09T09:31:52;100348.78;;;13.20;47.07
67740;BME280;54536;50.090;14.420;2023-04-09T09:34:21;100349.25;;;13.04;47.46
67740;BME280;54536;50.090;14.420;2023-04-09T09:36:48;100349.25;;;13.04;47.16
67740;BME280;54536;50.090;14.420;2023-04-09T09:39:15;100355.84;;;13.30;47.32
67740;BME280;54536;50.090;14.420;2023-04-09T09:41:43;100349.34;;;13.65;46.42
67740;BME280;54536;50.090;14.420;2023-04-09T09:44:11;100349.34;;;13.65;45.88
67740;BME280;54536;50.090;14.420;2023-04-09T09:46:39;100352.03;;;13.75;46.01
67740;BME280;54536;50.090;14.420;2023-04-09T09:49:08;100347.50;;;13.87;46.48
67740;BME280;54536;50.090;14.420;2023-04-09T09:51:39;100342.38;;;14.04;44.70
67740;BME280;54536;50.090;14.420;2023-04-09T09:54:07;100344.09;;;14.25;45.13
67740;BME280;54536;50.090;14.420;2023-04-09T09:56:38;100344.31;;;14.02;45.14
67740;BME280;54536;50.090;14.420;2023-04-09T10:01:33;100347.47;;;14.37;44.28
67740;BME280;54536;50.090;14.420;2023-04-09T10:04:05;100338.28;;;14.41;44.05
67740;BME280;54536;50.090;14.420;2023-04-09T10:06:32;100339.25;;;14.40;44.68
67740;BME280;54536;50.090;14.420;2023-04-09T10:09:04;100332.69;;;14.24;44.45
67740;BME280;54536;50.090;14.420;2023-04-09T10:11:35;100335.63;;;14.31;44.83
67740;BME280;54536;50.090;14.420;2023-04-09T10:14:03;100332.44;;;14.37;43.80
67740;BME280;54536;50.090;14.420;2023-04-09T10:16:30;100338.31;;;14.60;44.17
67740;BME280;54536;50.090;14.420;2023-04-09T10:18:58;100334.56;;;14.72;43.71
67740;BME280;54536;50.090;14.420;2023-04-09T10:21:35;100326.91;;;14.79;43.84
67740;BME280;54536;50.090;14.420;2023-04-09T10:24:05;100322.00;;;14.74;42.85
67740;BME280;54536;50.090;14.420;2023-04-09T10:26:34;100314.63;;;14.88;44.00
67740;BME280;54536;50.090;14.420;2023-04-09T10:29:10;100312.84;;;14.79;43.09
67740;BME280;54536;50.090;14.420;2023-04-09T10:32:06;100307.78;;;14.95;42.42
67740;BME280;54536;50.090;14.420;2023-04-09T10:34:41;100305.81;;;15.07;42.94
67740;BME280;54536;50.090;14.420;2023-04-09T10:37:13;100308.19;;;15.00;42.29
67740;BME280;54536;50.090;14.420;2023-04-09T10:39:43;100300.66;;;15.15;42.40
67740;BME280;54536;50.090;14.420;2023-04-09T10:42:17;100299.56;;;15.08;42.70
67740;BME280;54536;50.090;14.420;2023-04-09T10:44:45;100301.34;;;14.97;43.33
67740;BME280;54536;50.090;14.420;2023-04-09T10:47:34;100305.16;;;14.95;43.32
67740;BME280;54536;50.090;14.420;2023-04-09T10:50:33;100307.63;;;15.06;42.51
67740;BME280;54536;50.090;14.420;2023-04-09T10:53:02;100302.50;;;14.85;43.35
67740;BME280;54536;50.090;14.420;2023-04-09T10:57:57;100299.00;;;15.04;42.80
67740;BME280;54536;50.090;14.420;2023-04-09T11:00:24;100295.66;;;15.02;42.74
67740;BME280;54536;50.090;14.420;2023-04-09T11:05:35;100299.34;;;15.29;42.26
67740;BME280;54536;50.090;14.420;2023-04-09T11:08:11;100299.09;;;15.22;41.78
67740;BME280;54536;50.090;14.420;2023-04-09T11:10:40;100299.91;;;15.22;41.91
67740;BME280;54536;50.090;14.420;2023-04-09T11:13:13;100302.31;;;15.06;42.71
67740;BME280;54536;50.090;14.420;2023-04-09T11:15:40;100293.53;;;15.06;42.37
67740;BME280;54536;50.090;14.420;2023-04-09T11:18:06;100296.16;;;15.15;42.09
67740;BME280;54536;50.090;14.420;2023-04-09T11:20:35;100294.34;;;15.16;42.53
67740;BME280;54536;50.090;14.420;2023-04-09T11:23:01;100294.38;;;15.06;42.71
67740;BME280;54536;50.090;14.420;2023-04-09T11:25:32;100294.00;;;15.01;42.33
67740;BME280;54536;50.090;14.420;2023-04-09T11:28:02;100292.53;;;15.16;41.93
67740;BME280;54536;50.090;14.420;2023-04-09T11:30:28;100294.09;;;15.09;42.16
67740;BME280;54536;50.090;14.420;2023-04-09T11:32:56;100299.31;;;14.82;42.32
67740;BME280;54536;50.090;14.420;2023-04-09T11:35:22;100303.47;;;14.45;43.29
67740;BME280;54536;50.090;14.420;2023-04-09T11:37:49;100295.66;;;14.44;43.87
67740;BME280;54536;50.090;14.420;2023-04-09T11:40:23;100292.47;;;14.50;43.48
67740;BME280;54536;50.090;14.420;2023-04-09T11:42:51;100289.94;;;14.48;43.79
67740;BME280;54536;50.090;14.420;2023-04-09T11:45:26;100298.03;;;14.37;44.18
67740;BME280;54536;50.090;14.420;2023-04-09T11:47:53;100289.09;;;14.28;44.77
67740;BME280;54536;50.090;14.420;2023-04-09T11:50:20;100287.59;;;14.26;44.33
67740;BME280;54536;50.090;14.420;2023-04-09T11:52:47;100288.53;;;14.25;45.49
67740;BME280;54536;50.090;14.420;2023-04-09T11:55:25;100285.34;;;14.31;46.19
67740;BME280;54536;50.090;14.420;2023-04-09T11:58:00;100292.03;;;14.35;47.17
67740;BME280;54536;50.090;14.420;2023-04-09T12:00:28;100291.91;;;14.37;45.84
67740;BME280;54536;50.090;14.420;2023-04-09T12:03:00;100289.97;;;14.39;46.83
67740;BME280;54536;50.090;14.420;2023-04-09T12:05:30;100297.31;;;14.45;47.27
67740;BME280;54536;50.090;14.420;2023-04-09T12:07:58;100293.00;;;14.24;47.48
67740;BME280;54536;50.090;14.420;2023-04-09T12:10:31;100297.19;;;14.37;50.25
67740;BME280;54536;50.090;14.420;2023-04-09T12:13:08;100301.22;;;14.31;47.63
67740;BME280;54536;50.090;14.420;2023-04-09T12:15:37;100303.75;;;14.23;47.13
67740;BME280;54536;50.090;14.420;2023-04-09T12:18:10;100306.50;;;14.21;46.91
67740;BME280;54536;50.090;14.420;2023-04-09T12:20:39;100307.19;;;14.14;47.29
67740;BME280;54536;50.090;14.420;2023-04-09T12:23:07;100303.00;;;14.11;48.66
67740;BME280;54536;50.090;14.420;2023-04-09T12:25:37;100300.22;;;14.03;48.95
67740;BME280;54536;50.090;14.420;2023-04-09T12:28:05;100296.03;;;14.00;48.79
67740;BME280;54536;50.090;14.420;2023-04-09T12:30:32;100303.16;;;14.00;49.04
67740;BME280;54536;50.090;14.420;2023-04-09T12:32:58;100299.38;;;14.12;48.48
67740;BME280;54536;50.090;14.420;2023-04-09T12:35:25;100301.75;;;14.15;48.75
67740;BME280;54536;50.090;14.420;2023-04-09T12:37:51;100297.28;;;14.16;48.56
67740;BME280;54536;50.090;14.420;2023-04-09T12:40:18;100303.84;;;14.21;47.39
67740;BME280;54536;50.090;14.420;2023-04-09T12:42:45;100306.22;;;14.24;48.14
67740;BME280;54536;50.090;14.420;2023-04-09T12:45:13;100298.00;;;14.08;48.33
67740;BME280;54536;50.090;14.420;2023-04-09T12:47:39;100294.94;;;14.03;48.49
67740;BME280;54536;50.090;14.420;2023-04-09T12:50:08;100302.16;;;14.01;49.29
67740;BME280;54536;50.090;14.420;2023-04-09T12:52:35;100294.22;;;13.91;48.99
67740;BME280;54536;50.090;14.420;2023-04-09T12:55:03;100297.34;;;13.75;50.18
67740;BME280;54536;50.090;14.420;2023-04-09T12:57:29;100299.06;;;13.96;50.01
67740;BME280;54536;50.090;14.420;2023-04-09T12:59:55;100304.75;;;13.81;50.82
67740;BME280;54536;50.090;14.420;2023-04-09T13:02:22;100301.03;;;13.94;49.83
67740;BME280;54536;50.090;14.420;2023-04-09T13:04:49;100308.78;;;13.86;49.59
67740;BME280;54536;50.090;14.420;2023-04-09T13:07:16;100301.16;;;13.92;49.80
67740;BME280;54536;50.090;14.420;2023-04-09T13:09:44;100300.84;;;13.86;50.21
67740;BME280;54536;50.090;14.420;2023-04-09T13:12:10;100297.50;;;13.74;50.60